sensor_id;sensor_type;location;lat;lon;timestamp;P1;durP1;ratioP1;P2;durP2;ratioP2
14923;SDS011;7554;43.600;1.480;2023-08-06T00:00:17;4.73;;;2.07;;
14923;SDS011;7554;43.600;1.480;2023-08-06T00:02:45;3.50;;;1.90;;
14923;SDS011;7554;43.600;1.480;2023-08-06T00:05:12;4.50;;;2.37;;
14923;SDS011;7554;43.600;1.480;2023-08-06T00:07:43;4.20;;;2.17;;
14923;SDS011;7554;43.600;1.480;2023-08-06T00:10:12;6.07;;;2.33;;
14923;SDS011;7554;43.600;1.480;2023-08-06T00:12:39;6.33;;;2.37;;
14923;SDS011;7554;43.600;1.480;2023-08-06T00:15:07;5.77;;;2.73;;
14923;SDS011;7554;43.600;1.480;2023-08-06T00:17:35;6.40;;;2.30;;
14923;SDS011;7554;43.600;1.480;2023-08-06T00:20:03;4.73;;;2.30;;
14923;SDS011;7554;43.600;1.480;2023-08-06T00:22:31;7.73;;;2.50;;
14923;SDS011;7554;43.600;1.480;2023-08-06T00:24:58;4.97;;;2.13;;
14923;SDS011;7554;43.600;1.480;2023-08-06T00:27:27;8.33;;;2.40;;
14923;SDS011;7554;43.600;1.480;2023-08-06T00:29:54;8.10;;;2.47;;
14923;SDS011;7554;43.600;1.480;2023-08-06T00:32:22;5.67;;;2.40;;
14923;SDS011;7554;43.600;1.480;2023-08-06T00:34:49;6.23;;;2.50;;
14923;SDS011;7554;43.600;1.480;2023-08-06T00:37:16;6.13;;;2.53;;
14923;SDS011;7554;43.600;1.480;2023-08-06T00:39:44;7.17;;;2.50;;
14923;SDS011;7554;43.600;1.480;2023-08-06T00:42:11;6.23;;;2.27;;
14923;SDS011;7554;43.600;1.480;2023-08-06T00:44:40;7.70;;;2.80;;
14923;SDS011;7554;43.600;1.480;2023-08-06T00:47:07;10.87;;;2.77;;
14923;SDS011;7554;43.600;1.480;2023-08-06T00:49:35;7.47;;;2.77;;
14923;SDS011;7554;43.600;1.480;2023-08-06T00:52:03;9.73;;;2.60;;
14923;SDS011;7554;43.600;1.480;2023-08-06T00:54:31;4.90;;;2.37;;
14923;SDS011;7554;43.600;1.480;2023-08-06T00:56:59;6.93;;;2.63;;
14923;SDS011;7554;43.600;1.480;2023-08-06T00:59:28;7.97;;;2.57;;
14923;SDS011;7554;43.600;1.480;2023-08-06T01:01:57;7.20;;;2.30;;
14923;SDS011;7554;43.600;1.480;2023-08-06T01:04:24;9.03;;;2.57;;
14923;SDS011;7554;43.600;1.480;2023-08-06T01:06:55;7.20;;;2.57;;
14923;SDS011;7554;43.600;1.480;2023-08-06T01:09:35;6.70;;;2.47;;
14923;SDS011;7554;43.600;1.480;2023-08-06T01:12:09;6.03;;;2.33;;
14923;SDS011;7554;43.600;1.480;2023-08-06T01:14:48;6.73;;;2.80;;
14923;SDS011;7554;43.600;1.480;2023-08-06T01:17:26;9.03;;;2.60;;
14923;SDS011;7554;43.600;1.480;2023-08-06T01:19:54;8.30;;;2.77;;
14923;SDS011;7554;43.600;1.480;2023-08-06T01:22:22;9.47;;;2.60;;
14923;SDS011;7554;43.600;1.480;2023-08-06T01:24:50;6.73;;;2.00;;
14923;SDS011;7554;43.600;1.480;2023-08-06T01:27:19;13.73;;;2.70;;
14923;SDS011;7554;43.600;1.480;2023-08-06T01:29:56;12.93;;;3.10;;
14923;SDS011;7554;43.600;1.480;2023-08-06T01:32:28;10.03;;;2.53;;
14923;SDS011;7554;43.600;1.480;2023-08-06T01:34:59;10.87;;;2.70;;
14923;SDS011;7554;43.600;1.480;2023-08-06T01:37:30;13.57;;;2.63;;
14923;SDS011;7554;43.600;1.480;2023-08-06T01:39:58;14.53;;;3.17;;
14923;SDS011;7554;43.600;1.480;2023-08-06T01:42:25;11.33;;;3.10;;
14923;SDS011;7554;43.600;1.480;2023-08-06T01:44:53;11.37;;;2.80;;
14923;SDS011;7554;43.600;1.480;2023-08-06T01:47:20;12.73;;;2.70;;
14923;SDS011;7554;43.600;1.480;2023-08-06T01:49:47;11.83;;;2.50;;
14923;SDS011;7554;43.600;1.480;2023-08-06T01:52:15;12.17;;;2.80;;
14923;SDS011;7554;43.600;1.480;2023-08-06T01:54:43;16.17;;;2.77;;
14923;SDS011;7554;43.600;1.480;2023-08-06T01:57:11;12.27;;;3.17;;
14923;SDS011;7554;43.600;1.480;2023-08-06T01:59:39;15.27;;;3.23;;
14923;SDS011;7554;43.600;1.480;2023-08-06T02:02:07;12.40;;;2.97;;
14923;SDS011;7554;43.600;1.480;2023-08-06T02:04:34;16.13;;;2.83;;
14923;SDS011;7554;43.600;1.480;2023-08-06T02:07:01;13.53;;;2.57;;
14923;SDS011;7554;43.600;1.480;2023-08-06T02:09:29;16.37;;;2.50;;
14923;SDS011;7554;43.600;1.480;2023-08-06T02:11:58;11.33;;;2.83;;
14923;SDS011;7554;43.600;1.480;2023-08-06T02:14:25;15.07;;;3.07;;
14923;SDS011;7554;43.600;1.480;2023-08-06T02:16:52;10.93;;;2.70;;
14923;SDS011;7554;43.600;1.480;2023-08-06T02:19:20;13.53;;;2.90;;
14923;SDS011;7554;43.600;1.480;2023-08-06T02:21:47;12.77;;;2.90;;
14923;SDS011;7554;43.600;1.480;2023-08-06T02:24:14;13.03;;;3.43;;
14923;SDS011;7554;43.600;1.480;2023-08-06T02:26:41;11.77;;;2.83;;
14923;SDS011;7554;43.600;1.480;2023-08-06T02:29:10;15.20;;;3.37;;
14923;SDS011;7554;43.600;1.480;2023-08-06T02:31:37;12.63;;;3.40;;
14923;SDS011;7554;43.600;1.480;2023-08-06T02:34:05;14.73;;;3.17;;
14923;SDS011;7554;43.600;1.480;2023-08-06T02:36:32;12.20;;;2.87;;
14923;SDS011;7554;43.600;1.480;2023-08-06T02:38:59;10.80;;;2.70;;
14923;SDS011;7554;43.600;1.480;2023-08-06T02:41:26;14.07;;;2.93;;
14923;SDS011;7554;43.600;1.480;2023-08-06T02:43:54;13.10;;;3.00;;
14923;SDS011;7554;43.600;1.480;2023-08-06T02:46:22;10.40;;;2.53;;
14923;SDS011;7554;43.600;1.480;2023-08-06T02:48:50;11.70;;;2.90;;
14923;SDS011;7554;43.600;1.480;2023-08-06T02:51:17;13.63;;;2.77;;
14923;SDS011;7554;43.600;1.480;2023-08-06T02:53:44;9.63;;;2.57;;
14923;SDS011;7554;43.600;1.480;2023-08-06T02:56:14;12.57;;;3.10;;
14923;SDS011;7554;43.600;1.480;2023-08-06T02:58:41;11.67;;;2.63;;
14923;SDS011;7554;43.600;1.480;2023-08-06T03:01:08;10.97;;;2.63;;
14923;SDS011;7554;43.600;1.480;2023-08-06T03:03:37;14.10;;;2.20;;
14923;SDS011;7554;43.600;1.480;2023-08-06T03:06:04;13.57;;;2.93;;
14923;SDS011;7554;43.600;1.480;2023-08-06T03:08:32;12.13;;;2.73;;
14923;SDS011;7554;43.600;1.480;2023-08-06T03:10:59;15.37;;;3.37;;
14923;SDS011;7554;43.600;1.480;2023-08-06T03:13:26;11.57;;;2.30;;
14923;SDS011;7554;43.600;1.480;2023-08-06T03:15:54;10.37;;;2.53;;
14923;SDS011;7554;43.600;1.480;2023-08-06T03:18:22;16.10;;;2.70;;
14923;SDS011;7554;43.600;1.480;2023-08-06T03:20:52;8.53;;;2.40;;
14923;SDS011;7554;43.600;1.480;2023-08-06T03:23:20;11.30;;;3.10;;
14923;SDS011;7554;43.600;1.480;2023-08-06T03:25:47;11.13;;;2.03;;
14923;SDS011;7554;43.600;1.480;2023-08-06T03:28:15;11.47;;;2.57;;
14923;SDS011;7554;43.600;1.480;2023-08-06T03:30:42;12.57;;;2.73;;
14923;SDS011;7554;43.600;1.480;2023-08-06T03:33:09;10.90;;;2.47;;
14923;SDS011;7554;43.600;1.480;2023-08-06T03:35:36;13.97;;;2.30;;
14923;SDS011;7554;43.600;1.480;2023-08-06T03:38:05;13.53;;;3.10;;
14923;SDS011;7554;43.600;1.480;2023-08-06T03:40:34;10.60;;;2.13;;
14923;SDS011;7554;43.600;1.480;2023-08-06T03:43:02;9.57;;;2.57;;
14923;SDS011;7554;43.600;1.480;2023-08-06T03:45:29;14.20;;;2.50;;
14923;SDS011;7554;43.600;1.480;2023-08-06T03:47:57;12.93;;;2.90;;
14923;SDS011;7554;43.600;1.480;2023-08-06T03:50:24;10.37;;;2.57;;
14923;SDS011;7554;43.600;1.480;2023-08-06T03:52:51;13.80;;;2.63;;
14923;SDS011;7554;43.600;1.480;2023-08-06T03:55:20;8.80;;;2.40;;
14923;SDS011;7554;43.600;1.480;2023-08-06T03:57:48;11.60;;;2.40;;
14923;SDS011;7554;43.600;1.480;2023-08-06T04:00:15;12.93;;;2.50;;
14923;SDS011;7554;43.600;1.480;2023-08-06T04:02:42;16.07;;;2.40;;
14923;SDS011;7554;43.600;1.480;2023-08-06T04:05:10;13.07;;;2.97;;
14923;SDS011;7554;43.600;1.480;2023-08-06T04:07:38;14.73;;;2.63;;
14923;SDS011;7554;43.600;1.480;2023-08-06T04:10:06;13.00;;;3.00;;
14923;SDS011;7554;43.600;1.480;2023-08-06T04:12:35;11.47;;;2.47;;
14923;SDS011;7554;43.600;1.480;2023-08-06T04:15:04;14.27;;;2.83;;
14923;SDS011;7554;43.600;1.480;2023-08-06T04:17:32;13.63;;;2.63;;
14923;SDS011;7554;43.600;1.480;2023-08-06T04:20:00;15.43;;;2.50;;
14923;SDS011;7554;43.600;1.480;2023-08-06T04:22:27;13.77;;;2.80;;
14923;SDS011;7554;43.600;1.480;2023-08-06T04:24:54;16.73;;;2.97;;
14923;SDS011;7554;43.600;1.480;2023-08-06T04:27:22;9.87;;;2.27;;
14923;SDS011;7554;43.600;1.480;2023-08-06T04:29:50;14.00;;;2.20;;
14923;SDS011;7554;43.600;1.480;2023-08-06T04:32:18;14.37;;;2.50;;
14923;SDS011;7554;43.600;1.480;2023-08-06T04:34:45;16.10;;;3.07;;
14923;SDS011;7554;43.600;1.480;2023-08-06T04:37:13;12.40;;;2.17;;
14923;SDS011;7554;43.600;1.480;2023-08-06T04:39:40;15.10;;;2.57;;
14923;SDS011;7554;43.600;1.480;2023-08-06T04:42:07;19.27;;;3.27;;
14923;SDS011;7554;43.600;1.480;2023-08-06T04:44:35;15.60;;;3.63;;
14923;SDS011;7554;43.600;1.480;2023-08-06T04:47:03;13.33;;;3.03;;
14923;SDS011;7554;43.600;1.480;2023-08-06T04:49:31;15.10;;;2.93;;
14923;SDS011;7554;43.600;1.480;2023-08-06T04:51:58;13.23;;;2.83;;
14923;SDS011;7554;43.600;1.480;2023-08-06T04:54:25;11.17;;;2.70;;
14923;SDS011;7554;43.600;1.480;2023-08-06T04:56:52;13.80;;;2.70;;
14923;SDS011;7554;43.600;1.480;2023-08-06T04:59:20;14.77;;;3.13;;
14923;SDS011;7554;43.600;1.480;2023-08-06T05:01:47;18.50;;;3.10;;
14923;SDS011;7554;43.600;1.480;2023-08-06T05:04:16;13.57;;;3.33;;
14923;SDS011;7554;43.600;1.480;2023-08-06T05:06:43;14.10;;;2.93;;
14923;SDS011;7554;43.600;1.480;2023-08-06T05:09:10;18.53;;;3.30;;
14923;SDS011;7554;43.600;1.480;2023-08-06T05:11:38;13.70;;;2.37;;
14923;SDS011;7554;43.600;1.480;2023-08-06T05:14:05;11.23;;;2.67;;
14923;SDS011;7554;43.600;1.480;2023-08-06T05:16:32;10.50;;;3.00;;
14923;SDS011;7554;43.600;1.480;2023-08-06T05:19:00;18.77;;;3.87;;
14923;SDS011;7554;43.600;1.480;2023-08-06T05:21:28;11.63;;;2.40;;
14923;SDS011;7554;43.600;1.480;2023-08-06T05:23:56;15.07;;;3.27;;
14923;SDS011;7554;43.600;1.480;2023-08-06T05:26:23;13.83;;;3.00;;
14923;SDS011;7554;43.600;1.480;2023-08-06T05:28:50;13.33;;;2.87;;
14923;SDS011;7554;43.600;1.480;2023-08-06T05:31:17;13.77;;;3.00;;
14923;SDS011;7554;43.600;1.480;2023-08-06T05:33:45;14.43;;;2.77;;
14923;SDS011;7554;43.600;1.480;2023-08-06T05:36:12;14.60;;;2.93;;
14923;SDS011;7554;43.600;1.480;2023-08-06T05:38:41;11.40;;;3.23;;
14923;SDS011;7554;43.600;1.480;2023-08-06T05:41:08;10.30;;;2.70;;
14923;SDS011;7554;43.600;1.480;2023-08-06T05:43:35;14.97;;;3.03;;
14923;SDS011;7554;43.600;1.480;2023-08-06T05:46:03;15.33;;;3.13;;
14923;SDS011;7554;43.600;1.480;2023-08-06T05:48:30;15.27;;;2.97;;
14923;SDS011;7554;43.600;1.480;2023-08-06T05:50:57;16.77;;;3.30;;
14923;SDS011;7554;43.600;1.480;2023-08-06T05:53:25;11.70;;;2.73;;
14923;SDS011;7554;43.600;1.480;2023-08-06T05:55:53;10.70;;;2.63;;
14923;SDS011;7554;43.600;1.480;2023-08-06T05:58:21;11.63;;;3.17;;
14923;SDS011;7554;43.600;1.480;2023-08-06T06:00:51;8.67;;;2.23;;
14923;SDS011;7554;43.600;1.480;2023-08-06T06:03:18;14.73;;;2.77;;
14923;SDS011;7554;43.600;1.480;2023-08-06T06:05:45;10.37;;;2.67;;
14923;SDS011;7554;43.600;1.480;2023-08-06T06:08:13;9.20;;;2.20;;
14923;SDS011;7554;43.600;1.480;2023-08-06T06:10:40;7.67;;;2.10;;
14923;SDS011;7554;43.600;1.480;2023-08-06T06:13:09;7.40;;;2.20;;
14923;SDS011;7554;43.600;1.480;2023-08-06T06:15:37;15.43;;;3.17;;
14923;SDS011;7554;43.600;1.480;2023-08-06T06:18:04;12.37;;;2.30;;
14923;SDS011;7554;43.600;1.480;2023-08-06T06:20:31;12.90;;;2.80;;
14923;SDS011;7554;43.600;1.480;2023-08-06T06:22:59;10.47;;;2.63;;
14923;SDS011;7554;43.600;1.480;2023-08-06T06:25:26;12.03;;;2.33;;
14923;SDS011;7554;43.600;1.480;2023-08-06T06:27:53;12.27;;;2.70;;
14923;SDS011;7554;43.600;1.480;2023-08-06T06:30:22;12.70;;;2.43;;
14923;SDS011;7554;43.600;1.480;2023-08-06T06:32:49;12.30;;;3.27;;
14923;SDS011;7554;43.600;1.480;2023-08-06T06:35:17;11.93;;;2.70;;
14923;SDS011;7554;43.600;1.480;2023-08-06T06:37:44;13.73;;;2.90;;
14923;SDS011;7554;43.600;1.480;2023-08-06T06:40:11;14.37;;;3.50;;
14923;SDS011;7554;43.600;1.480;2023-08-06T06:42:39;12.77;;;3.00;;
14923;SDS011;7554;43.600;1.480;2023-08-06T06:45:06;10.33;;;2.50;;
14923;SDS011;7554;43.600;1.480;2023-08-06T06:47:36;13.13;;;3.23;;
14923;SDS011;7554;43.600;1.480;2023-08-06T06:50:04;11.17;;;2.80;;
14923;SDS011;7554;43.600;1.480;2023-08-06T06:52:32;13.10;;;3.13;;
14923;SDS011;7554;43.600;1.480;2023-08-06T06:54:59;11.47;;;3.03;;
14923;SDS011;7554;43.600;1.480;2023-08-06T06:57:27;15.60;;;3.10;;
14923;SDS011;7554;43.600;1.480;2023-08-06T06:59:54;13.60;;;2.67;;
14923;SDS011;7554;43.600;1.480;2023-08-06T07:02:21;10.27;;;2.50;;
14923;SDS011;7554;43.600;1.480;2023-08-06T07:04:51;11.93;;;2.57;;
14923;SDS011;7554;43.600;1.480;2023-08-06T07:07:18;12.13;;;2.70;;
14923;SDS011;7554;43.600;1.480;2023-08-06T07:09:45;7.50;;;1.90;;
14923;SDS011;7554;43.600;1.480;2023-08-06T07:12:12;14.57;;;2.77;;
14923;SDS011;7554;43.600;1.480;2023-08-06T07:14:40;11.90;;;2.47;;
14923;SDS011;7554;43.600;1.480;2023-08-06T07:17:07;11.57;;;2.37;;
14923;SDS011;7554;43.600;1.480;2023-08-06T07:19:34;13.47;;;3.43;;
14923;SDS011;7554;43.600;1.480;2023-08-06T07:22:03;15.43;;;3.23;;
14923;SDS011;7554;43.600;1.480;2023-08-06T07:24:31;14.67;;;2.80;;
14923;SDS011;7554;43.600;1.480;2023-08-06T07:26:58;12.10;;;2.77;;
14923;SDS011;7554;43.600;1.480;2023-08-06T07:29:26;11.17;;;2.93;;
14923;SDS011;7554;43.600;1.480;2023-08-06T07:31:53;15.50;;;3.47;;
14923;SDS011;7554;43.600;1.480;2023-08-06T07:34:20;10.27;;;2.33;;
14923;SDS011;7554;43.600;1.480;2023-08-06T07:36:48;12.20;;;2.80;;
14923;SDS011;7554;43.600;1.480;2023-08-06T07:39:17;9.83;;;2.20;;
14923;SDS011;7554;43.600;1.480;2023-08-06T07:41:44;7.73;;;2.10;;
14923;SDS011;7554;43.600;1.480;2023-08-06T07:44:11;9.60;;;2.17;;
14923;SDS011;7554;43.600;1.480;2023-08-06T07:46:39;8.00;;;2.10;;
14923;SDS011;7554;43.600;1.480;2023-08-06T07:49:06;9.43;;;2.30;;
14923;SDS011;7554;43.600;1.480;2023-08-06T07:51:33;9.03;;;2.33;;
14923;SDS011;7554;43.600;1.480;2023-08-06T07:54:01;13.80;;;2.60;;
14923;SDS011;7554;43.600;1.480;2023-08-06T07:56:29;9.33;;;2.43;;
14923;SDS011;7554;43.600;1.480;2023-08-06T07:58:57;9.30;;;2.07;;
14923;SDS011;7554;43.600;1.480;2023-08-06T08:01:24;10.17;;;2.40;;
14923;SDS011;7554;43.600;1.480;2023-08-06T08:03:51;8.47;;;2.00;;
14923;SDS011;7554;43.600;1.480;2023-08-06T08:06:19;8.90;;;2.17;;
14923;SDS011;7554;43.600;1.480;2023-08-06T08:08:46;6.90;;;2.37;;
14923;SDS011;7554;43.600;1.480;2023-08-06T08:11:13;11.40;;;2.13;;
14923;SDS011;7554;43.600;1.480;2023-08-06T08:13:42;9.13;;;2.53;;
14923;SDS011;7554;43.600;1.480;2023-08-06T08:16:10;8.63;;;2.23;;
14923;SDS011;7554;43.600;1.480;2023-08-06T08:18:37;8.27;;;2.07;;
14923;SDS011;7554;43.600;1.480;2023-08-06T08:21:04;12.17;;;2.33;;
14923;SDS011;7554;43.600;1.480;2023-08-06T08:23:32;6.43;;;1.70;;
14923;SDS011;7554;43.600;1.480;2023-08-06T08:25:59;7.47;;;2.03;;
14923;SDS011;7554;43.600;1.480;2023-08-06T08:28:27;10.43;;;1.93;;
14923;SDS011;7554;43.600;1.480;2023-08-06T08:30:56;6.27;;;1.90;;
14923;SDS011;7554;43.600;1.480;2023-08-06T08:33:23;5.30;;;1.90;;
14923;SDS011;7554;43.600;1.480;2023-08-06T08:35:50;9.20;;;1.80;;
14923;SDS011;7554;43.600;1.480;2023-08-06T08:38:18;7.27;;;1.90;;
14923;SDS011;7554;43.600;1.480;2023-08-06T08:40:45;7.97;;;2.20;;
14923;SDS011;7554;43.600;1.480;2023-08-06T08:43:15;9.00;;;2.33;;
14923;SDS011;7554;43.600;1.480;2023-08-06T08:45:45;8.90;;;1.83;;
14923;SDS011;7554;43.600;1.480;2023-08-06T08:48:18;7.10;;;1.63;;
14923;SDS011;7554;43.600;1.480;2023-08-06T08:50:47;8.77;;;2.20;;
14923;SDS011;7554;43.600;1.480;2023-08-06T08:53:15;7.20;;;1.90;;
14923;SDS011;7554;43.600;1.480;2023-08-06T08:55:46;6.93;;;1.90;;
14923;SDS011;7554;43.600;1.480;2023-08-06T08:58:14;9.63;;;2.13;;
14923;SDS011;7554;43.600;1.480;2023-08-06T09:00:42;8.47;;;2.27;;
14923;SDS011;7554;43.600;1.480;2023-08-06T09:03:09;7.73;;;2.33;;
14923;SDS011;7554;43.600;1.480;2023-08-06T09:05:38;7.43;;;2.13;;
14923;SDS011;7554;43.600;1.480;2023-08-06T09:08:11;10.43;;;2.10;;
14923;SDS011;7554;43.600;1.480;2023-08-06T09:10:42;7.93;;;1.97;;
14923;SDS011;7554;43.600;1.480;2023-08-06T09:13:10;7.37;;;2.10;;
14923;SDS011;7554;43.600;1.480;2023-08-06T09:15:37;7.93;;;2.20;;
14923;SDS011;7554;43.600;1.480;2023-08-06T09:18:09;8.37;;;1.90;;
14923;SDS011;7554;43.600;1.480;2023-08-06T09:20:38;7.17;;;2.00;;
14923;SDS011;7554;43.600;1.480;2023-08-06T09:23:09;8.43;;;2.00;;
14923;SDS011;7554;43.600;1.480;2023-08-06T09:25:37;6.77;;;1.97;;
14923;SDS011;7554;43.600;1.480;2023-08-06T09:28:06;10.97;;;2.23;;
14923;SDS011;7554;43.600;1.480;2023-08-06T09:30:35;6.40;;;2.10;;
14923;SDS011;7554;43.600;1.480;2023-08-06T09:33:04;6.73;;;2.00;;
14923;SDS011;7554;43.600;1.480;2023-08-06T09:35:38;5.95;;;1.90;;
14923;SDS011;7554;43.600;1.480;2023-08-06T09:38:06;6.67;;;2.10;;
14923;SDS011;7554;43.600;1.480;2023-08-06T09:40:35;5.53;;;2.07;;
14923;SDS011;7554;43.600;1.480;2023-08-06T09:43:03;4.30;;;1.80;;
14923;SDS011;7554;43.600;1.480;2023-08-06T09:45:31;8.00;;;1.93;;
14923;SDS011;7554;43.600;1.480;2023-08-06T09:48:02;9.30;;;1.97;;
14923;SDS011;7554;43.600;1.480;2023-08-06T09:50:31;14.57;;;2.90;;
14923;SDS011;7554;43.600;1.480;2023-08-06T09:53:02;7.30;;;2.90;;
14923;SDS011;7554;43.600;1.480;2023-08-06T09:55:31;6.77;;;2.13;;
14923;SDS011;7554;43.600;1.480;2023-08-06T09:57:59;6.20;;;2.07;;
14923;SDS011;7554;43.600;1.480;2023-08-06T10:00:26;7.80;;;1.77;;
14923;SDS011;7554;43.600;1.480;2023-08-06T10:02:59;6.10;;;1.63;;
14923;SDS011;7554;43.600;1.480;2023-08-06T10:05:27;6.33;;;1.83;;
14923;SDS011;7554;43.600;1.480;2023-08-06T10:07:56;7.97;;;1.90;;
14923;SDS011;7554;43.600;1.480;2023-08-06T10:10:27;8.73;;;1.60;;
14923;SDS011;7554;43.600;1.480;2023-08-06T10:12:56;6.13;;;1.67;;
14923;SDS011;7554;43.600;1.480;2023-08-06T10:15:26;6.87;;;2.00;;
14923;SDS011;7554;43.600;1.480;2023-08-06T10:17:56;6.37;;;1.70;;
14923;SDS011;7554;43.600;1.480;2023-08-06T10:20:24;9.23;;;1.90;;
14923;SDS011;7554;43.600;1.480;2023-08-06T10:22:59;7.73;;;1.67;;
14923;SDS011;7554;43.600;1.480;2023-08-06T10:25:31;6.03;;;1.90;;
14923;SDS011;7554;43.600;1.480;2023-08-06T10:27:59;7.87;;;1.73;;
14923;SDS011;7554;43.600;1.480;2023-08-06T10:30:28;5.90;;;1.77;;
14923;SDS011;7554;43.600;1.480;2023-08-06T10:32:57;7.17;;;1.63;;
14923;SDS011;7554;43.600;1.480;2023-08-06T10:35:29;6.70;;;1.87;;
14923;SDS011;7554;43.600;1.480;2023-08-06T10:38:08;4.53;;;1.53;;
14923;SDS011;7554;43.600;1.480;2023-08-06T10:40:38;6.57;;;2.00;;
14923;SDS011;7554;43.600;1.480;2023-08-06T10:43:07;5.73;;;1.77;;
14923;SDS011;7554;43.600;1.480;2023-08-06T10:45:51;5.20;;;1.80;;
14923;SDS011;7554;43.600;1.480;2023-08-06T10:48:27;7.17;;;1.83;;
14923;SDS011;7554;43.600;1.480;2023-08-06T10:50:56;7.43;;;1.70;;
14923;SDS011;7554;43.600;1.480;2023-08-06T10:53:23;6.75;;;2.00;;
14923;SDS011;7554;43.600;1.480;2023-08-06T10:55:52;6.75;;;2.05;;
14923;SDS011;7554;43.600;1.480;2023-08-06T10:58:19;4.83;;;1.90;;
14923;SDS011;7554;43.600;1.480;2023-08-06T11:00:47;11.47;;;1.70;;
14923;SDS011;7554;43.600;1.480;2023-08-06T11:03:14;7.18;;;2.08;;
14923;SDS011;7554;43.600;1.480;2023-08-06T11:05:48;4.43;;;1.63;;
14923;SDS011;7554;43.600;1.480;2023-08-06T11:08:22;4.97;;;1.50;;
14923;SDS011;7554;43.600;1.480;2023-08-06T11:10:52;6.32;;;1.75;;
14923;SDS011;7554;43.600;1.480;2023-08-06T11:13:20;6.13;;;1.83;;
14923;SDS011;7554;43.600;1.480;2023-08-06T11:15:47;4.68;;;1.52;;
14923;SDS011;7554;43.600;1.480;2023-08-06T11:18:15;5.43;;;1.45;;
14923;SDS011;7554;43.600;1.480;2023-08-06T11:20:42;7.57;;;2.08;;
14923;SDS011;7554;43.600;1.480;2023-08-06T11:23:09;3.65;;;1.52;;
14923;SDS011;7554;43.600;1.480;2023-08-06T11:25:37;4.57;;;1.48;;
14923;SDS011;7554;43.600;1.480;2023-08-06T11:28:12;8.15;;;1.65;;
14923;SDS011;7554;43.600;1.480;2023-08-06T11:30:40;3.03;;;1.50;;
14923;SDS011;7554;43.600;1.480;2023-08-06T11:33:07;4.53;;;1.70;;
14923;SDS011;7554;43.600;1.480;2023-08-06T11:35:35;5.72;;;1.73;;
14923;SDS011;7554;43.600;1.480;2023-08-06T11:38:05;6.28;;;2.33;;
14923;SDS011;7554;43.600;1.480;2023-08-06T11:40:32;4.80;;;1.98;;
14923;SDS011;7554;43.600;1.480;2023-08-06T11:43:01;7.72;;;2.03;;
14923;SDS011;7554;43.600;1.480;2023-08-06T11:45:30;6.68;;;1.70;;
14923;SDS011;7554;43.600;1.480;2023-08-06T11:47:57;5.63;;;1.77;;
14923;SDS011;7554;43.600;1.480;2023-08-06T11:50:26;8.55;;;1.85;;
14923;SDS011;7554;43.600;1.480;2023-08-06T11:52:54;5.63;;;1.85;;
14923;SDS011;7554;43.600;1.480;2023-08-06T11:55:24;5.05;;;1.70;;
14923;SDS011;7554;43.600;1.480;2023-08-06T11:57:51;5.28;;;1.65;;
14923;SDS011;7554;43.600;1.480;2023-08-06T12:00:19;8.43;;;2.30;;
14923;SDS011;7554;43.600;1.480;2023-08-06T12:02:48;7.23;;;1.50;;
14923;SDS011;7554;43.600;1.480;2023-08-06T12:05:18;4.85;;;1.52;;
14923;SDS011;7554;43.600;1.480;2023-08-06T12:07:49;3.25;;;1.20;;
14923;SDS011;7554;43.600;1.480;2023-08-06T12:10:17;6.40;;;3.33;;
14923;SDS011;7554;43.600;1.480;2023-08-06T12:12:46;6.57;;;2.50;;
14923;SDS011;7554;43.600;1.480;2023-08-06T12:15:13;3.45;;;1.60;;
14923;SDS011;7554;43.600;1.480;2023-08-06T12:17:41;5.28;;;1.40;;
14923;SDS011;7554;43.600;1.480;2023-08-06T12:20:10;4.60;;;1.77;;
14923;SDS011;7554;43.600;1.480;2023-08-06T12:22:38;6.05;;;1.70;;
14923;SDS011;7554;43.600;1.480;2023-08-06T12:25:06;4.72;;;1.30;;
14923;SDS011;7554;43.600;1.480;2023-08-06T12:27:37;9.63;;;5.15;;
14923;SDS011;7554;43.600;1.480;2023-08-06T12:30:06;9.07;;;4.57;;
14923;SDS011;7554;43.600;1.480;2023-08-06T12:32:33;3.47;;;1.70;;
14923;SDS011;7554;43.600;1.480;2023-08-06T12:35:01;6.82;;;1.70;;
14923;SDS011;7554;43.600;1.480;2023-08-06T12:37:31;4.55;;;1.60;;
14923;SDS011;7554;43.600;1.480;2023-08-06T12:39:58;5.88;;;2.58;;
14923;SDS011;7554;43.600;1.480;2023-08-06T12:42:26;6.05;;;1.73;;
14923;SDS011;7554;43.600;1.480;2023-08-06T12:44:53;4.53;;;2.28;;
14923;SDS011;7554;43.600;1.480;2023-08-06T12:47:20;5.85;;;2.63;;
14923;SDS011;7554;43.600;1.480;2023-08-06T12:49:48;7.80;;;2.67;;
14923;SDS011;7554;43.600;1.480;2023-08-06T12:52:15;7.32;;;1.92;;
14923;SDS011;7554;43.600;1.480;2023-08-06T12:54:46;5.53;;;1.70;;
14923;SDS011;7554;43.600;1.480;2023-08-06T12:57:14;5.18;;;1.55;;
14923;SDS011;7554;43.600;1.480;2023-08-06T12:59:42;6.63;;;1.48;;
14923;SDS011;7554;43.600;1.480;2023-08-06T13:02:09;3.95;;;1.48;;
14923;SDS011;7554;43.600;1.480;2023-08-06T13:04:37;5.72;;;1.52;;
14923;SDS011;7554;43.600;1.480;2023-08-06T13:07:05;2.95;;;1.42;;
14923;SDS011;7554;43.600;1.480;2023-08-06T13:09:32;7.05;;;1.92;;
14923;SDS011;7554;43.600;1.480;2023-08-06T13:12:01;5.00;;;1.70;;
14923;SDS011;7554;43.600;1.480;2023-08-06T13:14:31;5.50;;;1.27;;
14923;SDS011;7554;43.600;1.480;2023-08-06T13:16:58;4.22;;;1.77;;
14923;SDS011;7554;43.600;1.480;2023-08-06T13:19:27;7.22;;;2.00;;
14923;SDS011;7554;43.600;1.480;2023-08-06T13:21:59;4.97;;;1.80;;
14923;SDS011;7554;43.600;1.480;2023-08-06T13:24:29;5.05;;;1.73;;
14923;SDS011;7554;43.600;1.480;2023-08-06T13:26:56;4.50;;;1.38;;
14923;SDS011;7554;43.600;1.480;2023-08-06T13:29:25;5.53;;;1.80;;
14923;SDS011;7554;43.600;1.480;2023-08-06T13:31:53;5.25;;;2.05;;
14923;SDS011;7554;43.600;1.480;2023-08-06T13:34:21;5.40;;;1.40;;
14923;SDS011;7554;43.600;1.480;2023-08-06T13:36:48;7.45;;;1.90;;
14923;SDS011;7554;43.600;1.480;2023-08-06T13:39:16;8.02;;;1.88;;
14923;SDS011;7554;43.600;1.480;2023-08-06T13:41:44;4.55;;;1.65;;
14923;SDS011;7554;43.600;1.480;2023-08-06T13:44:12;7.80;;;2.10;;
14923;SDS011;7554;43.600;1.480;2023-08-06T13:46:42;7.53;;;1.85;;
14923;SDS011;7554;43.600;1.480;2023-08-06T13:49:09;4.00;;;1.25;;
14923;SDS011;7554;43.600;1.480;2023-08-06T13:51:37;5.57;;;1.65;;
14923;SDS011;7554;43.600;1.480;2023-08-06T13:54:05;4.78;;;1.73;;
14923;SDS011;7554;43.600;1.480;2023-08-06T13:56:32;6.32;;;1.80;;
14923;SDS011;7554;43.600;1.480;2023-08-06T13:59:02;4.75;;;1.67;;
14923;SDS011;7554;43.600;1.480;2023-08-06T14:01:30;6.10;;;1.52;;
14923;SDS011;7554;43.600;1.480;2023-08-06T14:03:59;5.03;;;1.73;;
14923;SDS011;7554;43.600;1.480;2023-08-06T14:06:26;5.32;;;1.77;;
14923;SDS011;7554;43.600;1.480;2023-08-06T14:08:53;4.32;;;1.65;;
14923;SDS011;7554;43.600;1.480;2023-08-06T14:11:21;7.07;;;1.70;;
14923;SDS011;7554;43.600;1.480;2023-08-06T14:13:48;3.80;;;1.77;;
14923;SDS011;7554;43.600;1.480;2023-08-06T14:16:15;6.63;;;1.75;;
14923;SDS011;7554;43.600;1.480;2023-08-06T14:18:43;5.53;;;1.70;;
14923;SDS011;7554;43.600;1.480;2023-08-06T14:21:11;6.15;;;1.80;;
14923;SDS011;7554;43.600;1.480;2023-08-06T14:23:39;5.55;;;1.58;;
14923;SDS011;7554;43.600;1.480;2023-08-06T14:26:07;4.57;;;1.65;;
14923;SDS011;7554;43.600;1.480;2023-08-06T14:28:35;7.25;;;1.95;;
14923;SDS011;7554;43.600;1.480;2023-08-06T14:31:03;4.85;;;1.80;;
14923;SDS011;7554;43.600;1.480;2023-08-06T14:33:30;5.10;;;1.48;;
14923;SDS011;7554;43.600;1.480;2023-08-06T14:35:57;8.52;;;2.03;;
14923;SDS011;7554;43.600;1.480;2023-08-06T14:38:26;7.15;;;1.85;;
14923;SDS011;7554;43.600;1.480;2023-08-06T14:40:53;5.90;;;1.55;;
14923;SDS011;7554;43.600;1.480;2023-08-06T14:43:21;5.00;;;1.60;;
14923;SDS011;7554;43.600;1.480;2023-08-06T14:45:48;6.17;;;1.70;;
14923;SDS011;7554;43.600;1.480;2023-08-06T14:48:15;4.50;;;1.67;;
14923;SDS011;7554;43.600;1.480;2023-08-06T14:50:42;8.15;;;2.13;;
14923;SDS011;7554;43.600;1.480;2023-08-06T14:53:10;5.68;;;1.40;;
14923;SDS011;7554;43.600;1.480;2023-08-06T14:55:39;7.03;;;1.65;;
14923;SDS011;7554;43.600;1.480;2023-08-06T14:58:07;6.13;;;1.63;;
14923;SDS011;7554;43.600;1.480;2023-08-06T15:00:34;5.95;;;1.77;;